Time;durP1;ratioP1;P1;durP2;ratioP2;P2;SDS_P1;SDS_P2;PMS_P1;PMS_P2;Temp;Humidity;BMP_temperature;BMP_pressure;BME280_temperature;BME280_humidity;BME280_pressure;Samples;Min_cycle;Max_cycle;Signal;HPM_P1;HPM_P2
2022/02/17 00:01:15;;;;;;;5.97;2.20;;;13.50;99.90;;;;;;5066362;28;20207;-81
2022/02/17 00:03:47;;;;;;;11.17;3.20;;;13.60;99.90;;;;;;5064484;28;20205;-82
2022/02/17 00:06:14;;;;;;;11.23;3.70;;;13.50;99.90;;;;;;5066165;28;20225;-83
2022/02/17 00:08:44;;;;;;;9.87;3.07;;;13.50;99.90;;;;;;5065453;28;20237;-82
2022/02/17 00:11:19;;;;;;;11.30;3.00;;;13.40;99.90;;;;;;5066321;28;20875;-82
2022/02/17 00:13:51;;;;;;;14.63;3.40;;;13.40;99.90;;;;;;5066016;28;20220;-81
2022/02/17 00:16:24;;;;;;;9.23;3.40;;;13.40;99.90;;;;;;5065710;28;20216;-86
2022/02/17 00:18:51;;;;;;;18.50;5.07;;;13.30;99.90;;;;;;5064985;28;20198;-82
2022/02/17 00:21:18;;;;;;;13.57;3.23;;;13.30;99.90;;;;;;5062656;28;20212;-82
2022/02/17 00:23:47;;;;;;;14.17;3.90;;;13.40;99.90;;;;;;5064258;28;20224;-84
2022/02/17 00:26:21;;;;;;;12.77;3.77;;;13.40;99.90;;;;;;5065761;28;20188;-81
2022/02/17 00:28:51;;;;;;;23.87;5.57;;;13.30;99.90;;;;;;5064243;28;20232;-85
2022/02/17 00:31:19;;;;;;;21.87;5.47;;;13.20;99.90;;;;;;5064074;28;20280;-87
2022/02/17 00:33:48;;;;;;;21.50;4.20;;;13.20;99.90;;;;;;5061653;28;20205;-82
2022/02/17 00:36:15;;;;;;;13.50;4.00;;;13.10;99.90;;;;;;5062424;28;20678;-82
2022/02/17 00:38:46;;;;;;;23.03;4.67;;;13.00;99.90;;;;;;5064326;28;20216;-84
2022/02/17 00:41:22;;;;;;;14.13;4.33;;;13.00;99.90;;;;;;5065367;28;20691;-85
2022/02/17 00:43:51;;;;;;;22.80;5.43;;;12.90;99.90;;;;;;5066680;28;20192;-82
2022/02/17 00:46:23;;;;;;;20.90;5.13;;;12.80;99.90;;;;;;5065102;28;20529;-80
2022/02/17 00:48:53;;;;;;;17.60;5.20;;;12.80;99.90;;;;;;5066466;28;20513;-85
2022/02/17 00:51:20;;;;;;;25.33;5.57;;;12.80;99.90;;;;;;5064345;28;20275;-84
2022/02/17 00:53:50;;;;;;;24.93;5.43;;;12.70;99.90;;;;;;5064769;28;20553;-85
2022/02/17 00:56:18;;;;;;;24.93;5.77;;;12.60;99.90;;;;;;5063409;28;20201;-82
2022/02/17 00:58:48;;;;;;;20.63;4.73;;;12.50;99.90;;;;;;5065051;28;20552;-83
2022/02/17 01:01:21;;;;;;;24.67;4.87;;;12.50;99.90;;;;;;5063540;28;20205;-85
2022/02/17 01:03:50;;;;;;;22.47;5.20;;;12.60;99.90;;;;;;5064660;28;20190;-81
2022/02/17 01:06:21;;;;;;;16.70;5.17;;;12.50;99.90;;;;;;5063589;28;20225;-86
2022/02/17 01:08:48;;;;;;;21.70;5.77;;;12.50;99.90;;;;;;5066159;28;20659;-83
2022/02/17 01:11:16;;;;;;;27.20;4.70;;;12.50;99.90;;;;;;5065857;28;20208;-83
2022/02/17 01:13:48;;;;;;;20.57;4.97;;;12.50;99.90;;;;;;5064048;28;20207;-83
2022/02/17 01:16:16;;;;;;;23.57;5.80;;;12.40;99.90;;;;;;5064240;28;20193;-82
2022/02/17 01:18:45;;;;;;;25.50;5.40;;;12.40;99.90;;;;;;5044374;28;20212;-85
2022/02/17 01:21:14;;;;;;;28.73;5.53;;;12.30;99.90;;;;;;5061660;28;20227;-84
2022/02/17 01:23:41;;;;;;;23.77;5.17;;;12.40;99.90;;;;;;5062569;28;20193;-83
2022/02/17 01:26:12;;;;;;;24.40;5.00;;;12.40;99.90;;;;;;5061779;28;20193;-84
2022/02/17 01:28:43;;;;;;;26.17;5.60;;;12.30;99.90;;;;;;5062150;28;20236;-85
2022/02/17 01:31:17;;;;;;;29.57;6.07;;;12.30;99.90;;;;;;5060645;28;20204;-87
2022/02/17 01:33:44;;;;;;;23.40;5.70;;;12.30;99.90;;;;;;5062418;28;20204;-81
2022/02/17 01:36:13;;;;;;;23.53;5.10;;;12.30;99.90;;;;;;5062091;28;20210;-82
2022/02/17 01:38:41;;;;;;;20.90;5.93;;;12.30;99.90;;;;;;5063132;28;20555;-85
2022/02/17 01:41:09;;;;;;;27.97;6.90;;;12.30;99.90;;;;;;5062368;28;20216;-81
2022/02/17 01:43:45;;;;;;;26.27;5.70;;;12.20;99.90;;;;;;5063246;28;20216;-85
2022/02/17 01:46:13;;;;;;;28.80;5.50;;;12.30;99.90;;;;;;5061664;28;20280;-83
2022/02/17 01:48:42;;;;;;;29.97;6.33;;;12.20;99.90;;;;;;5062952;28;20227;-81
2022/02/17 01:51:10;;;;;;;29.30;5.50;;;12.20;99.90;;;;;;5060292;28;20208;-83
2022/02/17 01:53:37;;;;;;;31.13;6.17;;;12.20;99.90;;;;;;5059822;28;20207;-84
2022/02/17 01:56:10;;;;;;;24.07;5.00;;;12.10;99.90;;;;;;5058751;28;20193;-81
2022/02/17 01:58:39;;;;;;;33.27;6.70;;;12.10;99.90;;;;;;5058986;28;20200;-86
2022/02/17 02:01:07;;;;;;;24.57;6.00;;;12.10;99.90;;;;;;5060990;28;20205;-84
2022/02/17 02:03:44;;;;;;;29.07;6.23;;;12.20;99.90;;;;;;5062812;28;20246;-79
2022/02/17 02:06:11;;;;;;;21.80;5.33;;;12.10;99.90;;;;;;5063422;28;20247;-82
2022/02/17 02:08:39;;;;;;;24.90;5.80;;;12.10;99.90;;;;;;5063078;28;20634;-88
2022/02/17 02:11:12;;;;;;;24.80;6.57;;;12.10;99.90;;;;;;5065408;28;20227;-86
2022/02/17 02:13:39;;;;;;;27.70;6.13;;;12.00;99.90;;;;;;5064941;28;20188;-82
2022/02/17 02:16:07;;;;;;;24.33;5.00;;;12.10;99.90;;;;;;5064947;28;20211;-84
2022/02/17 02:18:37;;;;;;;28.10;5.67;;;12.00;99.90;;;;;;5065854;28;20192;-85
2022/02/17 02:21:07;;;;;;;28.03;5.20;;;11.90;99.90;;;;;;5062256;28;20208;-86
2022/02/17 02:23:41;;;;;;;26.40;6.13;;;11.90;99.90;;;;;;5061436;28;20594;-80
2022/02/17 02:26:11;;;;;;;24.77;5.63;;;11.80;99.90;;;;;;5062583;28;20195;-81
2022/02/17 02:28:41;;;;;;;33.70;6.43;;;11.80;99.90;;;;;;5076665;28;20235;-86
2022/02/17 02:31:09;;;;;;;33.10;6.80;;;11.80;99.90;;;;;;5062649;28;20209;-83
2022/02/17 02:33:36;;;;;;;33.77;6.73;;;11.70;99.90;;;;;;5064558;28;20211;-81
2022/02/17 02:36:03;;;;;;;35.65;8.07;;;11.70;99.90;;;;;;5059191;28;20511;-82
2022/02/17 02:38:37;;;;;;;24.67;6.03;;;11.70;99.90;;;;;;5062343;28;20215;-84
2022/02/17 02:41:05;;;;;;;33.77;6.93;;;11.70;99.90;;;;;;5059630;28;20215;-83
2022/02/17 02:43:33;;;;;;;32.97;7.23;;;11.60;99.90;;;;;;5059086;28;20209;-83
2022/02/17 02:46:00;;;;;;;23.47;5.87;;;11.50;99.90;;;;;;5060163;28;20187;-85
2022/02/17 02:48:28;;;;;;;37.07;6.87;;;11.50;99.90;;;;;;5061016;28;20238;-83
2022/02/17 02:50:55;;;;;;;19.97;5.87;;;11.50;99.90;;;;;;5062606;28;20225;-86
2022/02/17 02:53:24;;;;;;;31.23;6.43;;;11.40;99.90;;;;;;5060885;28;20211;-86
2022/02/17 02:56:00;;;;;;;27.97;6.67;;;11.40;99.90;;;;;;5062013;28;20198;-87
2022/02/17 02:58:27;;;;;;;34.05;8.20;;;11.40;99.90;;;;;;5060552;28;20422;-80
2022/02/17 03:00:58;;;;;;;32.83;5.90;;;11.40;99.90;;;;;;5063444;28;20203;-93
2022/02/17 03:03:29;;;;;;;28.17;6.80;;;11.50;99.90;;;;;;5064022;28;20645;-88
2022/02/17 03:05:55;;;;;;;27.13;6.53;;;11.50;99.90;;;;;;5065187;28;20257;-85
2022/02/17 03:08:23;;;;;;;43.53;8.13;;;11.40;99.90;;;;;;5046246;28;20230;-80
2022/02/17 03:11:02;;;;;;;27.90;6.30;;;11.30;99.90;;;;;;5067923;28;20224;-80
2022/02/17 03:13:30;;;;;;;39.70;6.87;;;11.30;99.90;;;;;;5067287;28;20198;-90
2022/02/17 03:16:00;;;;;;;38.33;6.53;;;11.30;99.90;;;;;;5048225;28;20234;-88
2022/02/17 03:18:28;;;;;;;37.37;7.17;;;11.30;99.90;;;;;;5068151;28;20209;-83
2022/02/17 03:20:55;;;;;;;34.72;8.27;;;11.30;99.90;;;;;;5067776;28;20424;-80
2022/02/17 03:23:22;;;;;;;33.20;7.53;;;11.60;99.90;;;;;;5066895;28;20207;-80
2022/02/17 03:25:49;;;;;;;26.60;6.67;;;11.40;99.90;;;;;;5070396;28;20187;-81
2022/02/17 03:28:18;;;;;;;33.67;6.10;;;11.40;99.90;;;;;;5069419;28;20696;-80
2022/02/17 03:30:47;;;;;;;30.97;6.57;;;11.30;99.90;;;;;;5069401;28;20202;-81
2022/02/17 03:33:16;;;;;;;34.10;7.00;;;11.30;99.90;;;;;;5066949;28;20210;-81
2022/02/17 03:35:47;;;;;;;32.83;6.80;;;11.30;99.90;;;;;;5067267;28;20214;-85
2022/02/17 03:38:15;;;;;;;34.37;7.30;;;11.20;99.90;;;;;;5067580;28;20198;-86
2022/02/17 03:40:44;;;;;;;31.67;6.57;;;11.20;99.90;;;;;;5069242;28;20197;-85
2022/02/17 03:43:11;;;;;;;43.40;8.03;;;11.10;99.90;;;;;;5065988;28;20196;-79
2022/02/17 03:45:39;;;;;;;43.57;7.70;;;11.20;99.90;;;;;;5064846;28;20214;-80
2022/02/17 03:48:12;;;;;;;40.97;8.53;;;11.20;99.90;;;;;;5064421;28;20655;-82
2022/02/17 03:50:40;;;;;;;36.40;8.03;;;11.20;99.90;;;;;;5065079;28;20218;-79
2022/02/17 03:53:07;;;;;;;38.17;8.13;;;11.20;99.90;;;;;;5066194;28;20282;-82
2022/02/17 03:55:35;;;;;;;32.10;7.37;;;11.10;99.90;;;;;;5066024;28;20202;-80
2022/02/17 03:58:02;;;;;;;31.90;7.63;;;11.10;99.90;;;;;;5066358;28;20210;-85
2022/02/17 04:00:29;;;;;;;31.37;7.10;;;11.10;99.90;;;;;;5065901;28;20251;-80
2022/02/17 04:02:57;;;;;;;36.27;7.30;;;11.00;99.90;;;;;;5064701;28;20195;-80
2022/02/17 04:05:27;;;;;;;32.03;6.73;;;11.00;99.90;;;;;;5047904;28;20203;-80
2022/02/17 04:07:55;;;;;;;39.63;6.90;;;11.00;99.90;;;;;;5065773;28;20206;-80
2022/02/17 04:10:23;;;;;;;41.87;9.40;;;11.00;99.90;;;;;;5065563;28;20214;-80
2022/02/17 04:12:51;;;;;;;32.43;8.13;;;11.00;99.90;;;;;;5064717;28;20191;-81
2022/02/17 04:15:19;;;;;;;36.73;7.97;;;11.00;99.90;;;;;;5066777;28;20208;-80
2022/02/17 04:17:47;;;;;;;30.73;6.80;;;11.00;99.90;;;;;;5065984;28;20649;-80
2022/02/17 04:20:16;;;;;;;35.67;6.83;;;11.00;99.90;;;;;;5066446;28;20199;-81
2022/02/17 04:22:44;;;;;;;34.40;7.83;;;10.90;99.90;;;;;;5061655;28;20206;-78
2022/02/17 04:25:13;;;;;;;37.88;9.65;;;10.90;99.90;;;;;;5059985;28;20425;-79
2022/02/17 04:27:39;;;;;;;41.20;7.83;;;11.00;99.90;;;;;;5061301;28;20271;-80
2022/02/17 04:30:08;;;;;;;40.57;8.60;;;10.90;99.90;;;;;;5062634;28;20230;-80
2022/02/17 04:32:35;;;;;;;32.63;7.23;;;11.00;99.90;;;;;;5063793;28;20233;-83
2022/02/17 04:35:08;;;;;;;36.13;7.17;;;11.00;99.90;;;;;;5063083;28;20191;-79
2022/02/17 04:37:36;;;;;;;43.87;8.57;;;11.00;99.90;;;;;;5064265;28;20224;-83
2022/02/17 04:40:05;;;;;;;35.57;7.33;;;10.90;99.90;;;;;;5062059;28;20203;-86
2022/02/17 04:42:33;;;;;;;42.13;8.70;;;11.00;99.90;;;;;;5062127;28;20239;-78
2022/02/17 04:45:07;;;;;;;36.50;7.20;;;11.00;99.90;;;;;;5067366;28;20191;-93
2022/02/17 04:47:59;;;;;;;44.10;9.95;;;11.00;99.90;;;;;;5072627;28;20437;-91
2022/02/17 04:50:33;;;;;;;34.67;7.57;;;11.00;99.90;;;;;;5077097;28;20215;-87
2022/02/17 04:53:04;;;;;;;39.20;9.23;;;11.00;99.90;;;;;;5076547;28;20182;-85
2022/02/17 04:55:42;;;;;;;47.00;8.77;;;11.00;99.90;;;;;;5076060;28;20191;-92
2022/02/17 04:58:09;;;;;;;40.80;7.70;;;11.10;99.90;;;;;;5074682;28;20209;-90
2022/02/17 05:00:37;;;;;;;35.90;7.53;;;11.00;99.90;;;;;;5067815;28;20240;-83
2022/02/17 05:03:09;;;;;;;46.37;9.57;;;11.00;99.90;;;;;;5064582;28;20210;-85
2022/02/17 05:05:36;;;;;;;35.60;7.80;;;11.00;99.90;;;;;;5062817;28;20234;-83
2022/02/17 05:08:05;;;;;;;32.30;7.13;;;11.00;99.90;;;;;;5062814;28;20195;-83
2022/02/17 05:10:32;;;;;;;46.97;9.50;;;10.90;99.90;;;;;;5062184;28;20230;-80
2022/02/17 05:13:02;;;;;;;39.00;8.47;;;10.90;99.90;;;;;;5062542;28;20198;-80
2022/02/17 05:15:30;;;;;;;36.20;7.73;;;10.80;99.90;;;;;;5061352;28;20213;-83
2022/02/17 05:18:03;;;;;;;41.00;7.70;;;10.90;99.90;;;;;;5058533;28;20214;-89
2022/02/17 05:20:30;;;;;;;43.43;8.90;;;10.80;99.90;;;;;;5057938;28;20281;-85
2022/02/17 05:22:56;;;;;;;49.50;9.57;;;10.80;99.90;;;;;;5057584;28;20209;-84
2022/02/17 05:25:26;;;;;;;48.40;10.30;;;10.80;99.90;;;;;;5056271;28;20198;-83
2022/02/17 05:27:52;;;;;;;53.07;9.07;;;10.80;99.90;;;;;;5056173;28;20252;-88
2022/02/17 05:30:21;;;;;;;49.07;9.17;;;10.80;99.90;;;;;;5078464;28;20237;-87
2022/02/17 05:32:49;;;;;;;42.73;8.43;;;10.80;99.90;;;;;;5087555;28;20198;-80
2022/02/17 05:35:17;;;;;;;50.57;9.37;;;10.90;99.90;;;;;;5087676;28;20196;-90
2022/02/17 05:37:44;;;;;;;54.80;10.73;;;10.80;99.90;;;;;;5089803;28;20227;-85
2022/02/17 05:40:17;;;;;;;51.63;8.80;;;10.80;99.90;;;;;;5079302;28;20284;-85
2022/02/17 05:42:45;;;;;;;37.27;8.70;;;10.80;99.90;;;;;;5077145;28;20206;-81
2022/02/17 05:45:12;;;;;;;40.43;9.23;;;10.80;99.90;;;;;;5076079;28;20220;-80
2022/02/17 05:47:41;;;;;;;40.03;8.33;;;10.80;99.90;;;;;;5076265;28;20201;-85
2022/02/17 05:50:10;;;;;;;44.40;8.53;;;10.80;99.90;;;;;;5075381;28;20252;-77
2022/02/17 05:52:36;;;;;;;38.50;8.10;;;10.80;99.90;;;;;;5076647;28;20463;-82
2022/02/17 05:55:05;;;;;;;47.57;9.53;;;10.80;99.90;;;;;;5076989;28;20315;-78
2022/02/17 05:57:32;;;;;;;42.23;8.50;;;10.80;99.90;;;;;;5075355;28;20194;-78
2022/02/17 06:00:02;;;;;;;31.20;7.80;;;10.80;99.90;;;;;;5075113;28;20285;-84
2022/02/17 06:02:29;;;;;;;43.33;8.77;;;10.70;99.90;;;;;;5061346;28;20621;-79
2022/02/17 06:04:56;;;;;;;53.40;10.23;;;10.70;99.90;;;;;;5052874;28;20206;-75
2022/02/17 06:07:23;;;;;;;41.67;9.03;;;10.70;99.90;;;;;;5054352;28;20222;-78
2022/02/17 06:09:51;;;;;;;39.10;8.40;;;10.70;99.90;;;;;;5055509;28;20226;-84
2022/02/17 06:12:18;;;;;;;38.10;7.97;;;10.70;99.90;;;;;;5056093;28;20677;-80
2022/02/17 06:14:45;;;;;;;46.60;8.90;;;10.70;99.90;;;;;;5055633;28;20554;-81
2022/02/17 06:17:14;;;;;;;45.10;8.03;;;10.70;99.90;;;;;;5056674;28;20281;-81
2022/02/17 06:19:41;;;;;;;43.50;9.13;;;10.60;99.90;;;;;;5055240;28;20187;-87
2022/02/17 06:22:09;;;;;;;50.10;9.57;;;10.60;99.90;;;;;;5054192;28;20209;-78
2022/02/17 06:24:36;;;;;;;45.73;8.93;;;10.50;99.90;;;;;;5055489;28;20221;-80
2022/02/17 06:27:03;;;;;;;41.47;8.53;;;10.60;99.90;;;;;;5054811;28;20187;-81
2022/02/17 06:29:30;;;;;;;40.40;8.43;;;10.50;99.90;;;;;;5054890;28;20214;-81
2022/02/17 06:31:58;;;;;;;39.20;8.67;;;10.50;99.90;;;;;;5055670;28;20201;-80
2022/02/17 06:34:30;;;;;;;42.57;9.47;;;10.50;99.90;;;;;;5056481;28;20233;-79
2022/02/17 06:36:57;;;;;;;40.17;8.13;;;10.50;99.90;;;;;;5055652;28;20198;-80
2022/02/17 06:39:24;;;;;;;43.83;8.70;;;10.50;99.90;;;;;;5054857;28;20201;-83
2022/02/17 06:41:51;;;;;;;45.67;8.37;;;10.40;99.90;;;;;;5054765;28;20206;-83
2022/02/17 06:44:18;;;;;;;47.23;9.73;;;10.50;99.90;;;;;;5054199;28;20197;-81
2022/02/17 06:46:48;;;;;;;45.07;9.33;;;10.40;99.90;;;;;;5054729;28;20195;-80
2022/02/17 06:49:15;;;;;;;48.90;9.53;;;10.40;99.90;;;;;;5055988;28;20361;-83
2022/02/17 06:51:43;;;;;;;42.67;9.73;;;10.40;99.90;;;;;;5056268;28;20614;-81
2022/02/17 06:54:10;;;;;;;44.47;9.53;;;10.40;99.90;;;;;;5056085;28;20202;-82
2022/02/17 06:56:38;;;;;;;48.03;9.93;;;10.40;99.90;;;;;;5055951;28;20190;-84
2022/02/17 06:59:11;;;;;;;46.03;9.40;;;10.40;99.90;;;;;;5057552;28;20201;-81
2022/02/17 07:01:40;;;;;;;44.83;8.97;;;10.30;99.90;;;;;;5054857;28;20225;-81
2022/02/17 07:04:10;;;;;;;42.57;9.07;;;10.40;99.90;;;;;;5054712;28;20206;-80
2022/02/17 07:06:38;;;;;;;38.43;8.93;;;10.30;99.90;;;;;;5054050;28;20226;-80
2022/02/17 07:09:09;;;;;;;40.37;8.17;;;10.40;99.90;;;;;;5053979;28;20293;-80
2022/02/17 07:11:36;;;;;;;50.20;9.03;;;10.40;99.90;;;;;;5055153;28;20198;-80
2022/02/17 07:14:09;;;;;;;47.27;8.67;;;10.40;99.90;;;;;;5055491;28;20206;-85
2022/02/17 07:16:36;;;;;;;46.53;8.80;;;10.40;99.90;;;;;;5053788;28;20202;-87
2022/02/17 07:19:04;;;;;;;46.70;9.60;;;10.40;99.90;;;;;;5054101;28;20226;-83
2022/02/17 07:21:33;;;;;;;40.03;9.00;;;10.40;99.90;;;;;;5054598;28;20186;-83
2022/02/17 07:24:01;;;;;;;51.03;8.93;;;10.30;99.90;;;;;;5055283;28;20621;-87
2022/02/17 07:26:31;;;;;;;48.80;8.93;;;10.30;99.90;;;;;;5054002;28;20206;-83
2022/02/17 07:28:59;;;;;;;42.60;7.77;;;10.30;99.90;;;;;;5053529;28;20744;-81
2022/02/17 07:31:26;;;;;;;42.37;9.17;;;10.30;99.90;;;;;;5054034;28;20197;-85
2022/02/17 07:33:55;;;;;;;38.37;8.20;;;10.30;99.90;;;;;;5054640;28;20665;-86
2022/02/17 07:36:23;;;;;;;37.07;8.00;;;10.30;99.90;;;;;;5055745;28;20269;-83
2022/02/17 07:38:50;;;;;;;43.20;9.70;;;10.30;99.90;;;;;;5054370;28;20218;-82
2022/02/17 07:41:18;;;;;;;41.47;8.07;;;10.40;99.90;;;;;;5069271;28;20206;-84
2022/02/17 07:43:46;;;;;;;41.50;7.90;;;10.30;99.90;;;;;;5073502;28;20673;-83
2022/02/17 07:46:14;;;;;;;58.57;10.13;;;10.40;99.90;;;;;;5074344;28;20198;-81
2022/02/17 07:48:41;;;;;;;37.90;8.47;;;10.40;99.90;;;;;;5073451;28;20534;-79
2022/02/17 07:51:12;;;;;;;31.17;7.03;;;10.30;99.90;;;;;;5073455;28;20227;-83
2022/02/17 07:53:39;;;;;;;37.03;8.43;;;10.20;99.90;;;;;;5074676;28;20270;-80
2022/02/17 07:56:06;;;;;;;29.23;6.70;;;10.20;99.90;;;;;;5074879;28;20190;-80
2022/02/17 07:58:33;;;;;;;46.37;7.97;;;10.20;99.90;;;;;;5077058;28;20210;-81
2022/02/17 08:01:02;;;;;;;38.57;7.57;;;10.30;99.90;;;;;;5076744;28;20205;-80
2022/02/17 08:03:32;;;;;;;33.57;6.63;;;10.30;99.90;;;;;;5077331;28;20532;-80
2022/02/17 08:05:58;;;;;;;39.65;9.48;;;10.50;99.90;;;;;;5076496;28;20417;-81
2022/02/17 08:08:25;;;;;;;26.60;5.93;;;10.40;99.90;;;;;;5077189;28;20193;-79
2022/02/17 08:10:53;;;;;;;32.47;6.80;;;10.40;99.90;;;;;;5076593;28;20573;-79
2022/02/17 08:13:21;;;;;;;40.90;6.47;;;10.40;99.90;;;;;;5077022;28;20206;-80
2022/02/17 08:15:50;;;;;;;34.73;7.07;;;10.50;99.90;;;;;;5077061;28;20216;-79
2022/02/17 08:18:19;;;;;;;39.27;7.50;;;10.50;99.90;;;;;;5075827;28;20548;-80
2022/02/17 08:20:47;;;;;;;27.83;6.07;;;10.50;99.90;;;;;;5075781;28;20578;-79
2022/02/17 08:23:14;;;;;;;31.17;6.83;;;10.50;99.90;;;;;;5076317;28;20190;-79
2022/02/17 08:25:41;;;;;;;27.07;6.27;;;10.50;99.90;;;;;;5076268;28;20202;-79
2022/02/17 08:28:09;;;;;;;33.53;7.85;;;10.50;99.90;;;;;;5075490;28;20428;-79
2022/02/17 08:30:36;;;;;;;40.37;8.00;;;10.60;99.90;;;;;;5076908;28;20225;-79
2022/02/17 08:33:04;;;;;;;34.13;6.63;;;10.60;99.90;;;;;;5075939;28;20202;-79
2022/02/17 08:35:34;;;;;;;30.63;7.00;;;10.70;99.90;;;;;;5076392;28;20213;-80
2022/02/17 08:38:01;;;;;;;32.93;6.80;;;10.60;99.90;;;;;;5076796;28;20663;-83
2022/02/17 08:40:29;;;;;;;28.87;6.37;;;10.60;99.90;;;;;;5077714;28;20206;-78
2022/02/17 08:43:08;;;;;;;29.00;6.60;;;10.60;99.90;;;;;;5076318;28;20205;-79
2022/02/17 08:45:36;;;;;;;37.30;6.87;;;10.60;99.90;;;;;;5076592;28;20246;-85
2022/02/17 08:48:03;;;;;;;38.37;7.30;;;10.70;99.90;;;;;;5070313;28;20222;-80
2022/02/17 08:50:31;;;;;;;36.80;7.17;;;10.60;99.90;;;;;;5073639;28;20226;-81
2022/02/17 08:52:58;;;;;;;35.97;7.47;;;10.60;99.90;;;;;;5075719;28;20209;-82
2022/02/17 08:55:26;;;;;;;34.23;7.47;;;10.60;99.90;;;;;;5074147;28;20206;-79
2022/02/17 08:57:53;;;;;;;47.83;10.10;;;10.70;99.90;;;;;;5074391;28;20614;-83
2022/02/17 09:00:23;;;;;;;48.70;9.03;;;10.60;99.90;;;;;;5076656;28;20187;-85
2022/02/17 09:02:50;;;;;;;34.63;7.90;;;10.60;99.90;;;;;;5075505;28;20656;-85
2022/02/17 09:05:20;;;;;;;30.30;7.53;;;10.60;99.90;;;;;;5074403;28;20688;-83
2022/02/17 09:07:48;;;;;;;33.70;8.00;;;10.50;99.90;;;;;;5075833;28;20212;-83
2022/02/17 09:10:16;;;;;;;26.27;6.40;;;10.40;99.90;;;;;;5074151;28;20708;-83
2022/02/17 09:12:43;;;;;;;23.97;4.93;;;10.30;99.90;;;;;;5075824;28;20671;-81
2022/02/17 09:15:10;;;;;;;24.57;4.47;;;10.30;99.90;;;;;;5057151;28;20201;-79
2022/02/17 09:17:40;;;;;;;17.53;4.17;;;10.20;99.90;;;;;;5071673;28;20202;-82
2022/02/17 09:20:08;;;;;;;15.03;3.13;;;10.20;99.90;;;;;;5075611;28;20186;-89
2022/02/17 09:22:36;;;;;;;19.23;3.97;;;10.30;99.90;;;;;;5074474;28;20252;-83
2022/02/17 09:25:06;;;;;;;10.70;3.37;;;10.30;99.90;;;;;;5075370;28;20213;-80
2022/02/17 09:27:33;;;;;;;18.60;4.50;;;10.30;99.90;;;;;;5074801;28;20202;-80
2022/02/17 09:29:59;;;;;;;16.93;4.30;;;10.30;99.90;;;;;;5075579;28;20252;-85
2022/02/17 09:32:27;;;;;;;14.53;4.40;;;10.50;99.90;;;;;;5075153;28;20553;-81
2022/02/17 09:34:54;;;;;;;19.70;5.22;;;10.30;99.90;;;;;;5073494;28;20525;-81
2022/02/17 09:37:21;;;;;;;19.37;5.50;;;10.40;99.90;;;;;;5074599;28;20201;-80
2022/02/17 09:39:48;;;;;;;26.63;5.23;;;10.40;99.90;;;;;;5074530;28;20570;-84
2022/02/17 09:42:17;;;;;;;25.50;6.10;;;10.40;99.90;;;;;;5075628;28;20655;-80
2022/02/17 09:44:46;;;;;;;28.97;5.83;;;10.50;99.90;;;;;;5074276;28;20198;-81
2022/02/17 09:47:16;;;;;;;28.27;5.57;;;10.60;99.90;;;;;;5075617;28;20543;-80
2022/02/17 09:49:44;;;;;;;26.73;5.33;;;10.60;99.90;;;;;;5075153;28;20208;-81
2022/02/17 09:52:13;;;;;;;35.67;6.73;;;10.60;99.90;;;;;;5075876;28;20566;-81
2022/02/17 09:54:40;;;;;;;34.97;6.30;;;10.80;99.90;;;;;;5074184;28;20303;-79
2022/02/17 09:57:08;;;;;;;34.63;6.80;;;10.80;99.90;;;;;;5075482;28;20255;-87
2022/02/17 09:59:37;;;;;;;24.00;6.03;;;10.80;99.90;;;;;;5076060;28;20201;-79
2022/02/17 10:02:06;;;;;;;24.27;5.77;;;10.80;99.90;;;;;;5072720;28;20195;-80
2022/02/17 10:04:34;;;;;;;26.90;6.37;;;10.80;99.90;;;;;;5074053;28;20656;-79
2022/02/17 10:07:03;;;;;;;27.23;6.00;;;10.90;99.90;;;;;;5075324;28;20222;-81
2022/02/17 10:09:39;;;;;;;22.53;5.50;;;10.90;99.90;;;;;;5075882;28;20664;-84
2022/02/17 10:12:09;;;;;;;27.73;6.17;;;10.90;99.90;;;;;;5078366;28;20247;-90
2022/02/17 10:14:39;;;;;;;28.70;6.40;;;11.00;99.90;;;;;;5070068;28;20194;-86
2022/02/17 10:17:14;;;;;;;24.10;5.30;;;11.00;99.90;;;;;;5076389;28;20257;-87
2022/02/17 10:19:47;;;;;;;28.20;7.03;;;11.10;99.90;;;;;;5075623;28;20428;-85
2022/02/17 10:22:17;;;;;;;27.13;5.67;;;11.20;99.90;;;;;;5076485;28;20211;-84
2022/02/17 10:24:46;;;;;;;24.23;5.67;;;11.20;99.90;;;;;;5075194;28;20304;-85
2022/02/17 10:27:21;;;;;;;20.43;5.13;;;11.30;99.90;;;;;;5073795;28;20205;-84
2022/02/17 10:30:07;;;;;;;17.77;3.73;;;11.30;99.90;;;;;;5074639;28;20208;-85
2022/02/17 10:32:35;;;;;;;24.27;5.20;;;11.30;99.90;;;;;;5075823;28;20716;-87
2022/02/17 10:35:12;;;;;;;24.27;5.30;;;11.30;99.90;;;;;;5076412;28;20206;-84
2022/02/17 10:37:48;;;;;;;22.17;4.70;;;11.40;99.90;;;;;;5073362;28;20292;-86
2022/02/17 10:40:23;;;;;;;24.07;4.70;;;11.40;99.90;;;;;;5075860;28;20539;-87
2022/02/17 10:43:01;;;;;;;23.00;4.70;;;11.40;99.90;;;;;;5074777;28;20277;-86
2022/02/17 10:45:31;;;;;;;19.10;4.30;;;11.40;99.90;;;;;;5075276;28;20193;-86
2022/02/17 10:48:11;;;;;;;17.87;4.17;;;11.50;99.90;;;;;;5074402;28;20206;-86
2022/02/17 10:50:38;;;;;;;17.53;3.80;;;11.20;99.90;;;;;;5076095;28;20237;-85
2022/02/17 10:53:19;;;;;;;29.23;6.07;;;11.30;99.90;;;;;;5075796;28;20201;-84
2022/02/17 10:55:53;;;;;;;24.43;5.33;;;11.20;99.90;;;;;;5075957;28;20194;-84
2022/02/17 10:58:30;;;;;;;17.57;4.07;;;11.30;99.90;;;;;;5075896;28;20204;-83
2022/02/17 11:01:03;;;;;;;24.23;5.07;;;11.40;99.90;;;;;;5076113;28;20213;-83
2022/02/17 11:03:34;;;;;;;22.30;5.27;;;11.40;99.90;;;;;;5056331;28;20236;-82
2022/02/17 11:06:07;;;;;;;18.37;4.57;;;11.50;99.90;;;;;;5059276;28;20615;-84
2022/02/17 11:08:34;;;;;;;16.50;4.50;;;11.70;99.90;;;;;;5072980;28;20620;-85
2022/02/17 11:11:04;;;;;;;18.70;4.10;;;11.70;99.90;;;;;;5075330;28;20232;-87
2022/02/17 11:13:33;;;;;;;24.00;5.80;;;11.70;99.90;;;;;;5075833;28;20200;-87
2022/02/17 11:16:07;;;;;;;21.77;4.37;;;11.80;99.90;;;;;;5057965;28;20191;-88
2022/02/17 11:18:34;;;;;;;27.17;4.90;;;11.80;99.90;;;;;;5076109;28;20195;-90
2022/02/17 11:21:06;;;;;;;22.70;4.83;;;11.90;99.90;;;;;;5079128;28;20626;-89
2022/02/17 11:23:36;;;;;;;21.27;3.77;;;11.80;99.90;;;;;;5076687;28;20191;-87
2022/02/17 11:26:18;;;;;;;17.70;4.80;;;11.60;99.90;;;;;;5077034;28;20778;-82
2022/02/17 11:28:45;;;;;;;19.47;3.73;;;11.60;99.90;;;;;;5076182;28;20193;-86
2022/02/17 11:31:14;;;;;;;19.67;4.47;;;11.70;99.90;;;;;;5075715;28;20569;-80
2022/02/17 11:33:42;;;;;;;15.87;3.63;;;11.70;99.90;;;;;;5077816;28;20217;-80
2022/02/17 11:36:30;;;;;;;11.73;3.53;;;11.80;99.90;;;;;;5073485;28;20198;-81
2022/02/17 11:38:59;;;;;;;12.60;3.10;;;11.70;99.90;;;;;;5077998;28;20202;-83
2022/02/17 11:41:31;;;;;;;10.83;2.53;;;11.70;99.90;;;;;;5079413;28;20238;-84
2022/02/17 11:44:16;;;;;;;7.63;2.60;;;11.80;99.90;;;;;;5076214;28;20210;-82
2022/02/17 11:46:50;;;;;;;9.80;2.83;;;11.70;99.90;;;;;;5076410;28;20266;-80
2022/02/17 11:49:49;;;;;;;16.23;3.00;;;11.60;99.90;;;;;;5076449;28;20223;-84
2022/02/17 11:52:20;;;;;;;12.57;2.97;;;11.70;99.90;;;;;;5067679;28;20283;-83
2022/02/17 11:55:21;;;;;;;13.20;3.43;;;11.90;99.90;;;;;;5078355;28;20195;-80
2022/02/17 11:57:47;;;;;;;15.03;2.80;;;11.90;99.90;;;;;;5075560;28;20227;-85
2022/02/17 12:00:37;;;;;;;14.40;2.90;;;12.10;99.90;;;;;;5081914;28;20187;-87
2022/02/17 12:03:05;;;;;;;11.70;2.70;;;12.10;99.90;;;;;;5085131;28;20199;-89
2022/02/17 12:05:33;;;;;;;10.80;2.67;;;12.10;99.90;;;;;;5100351;28;20227;-89
2022/02/17 12:08:24;;;;;;;7.53;2.20;;;11.90;99.90;;;;;;5091710;28;20212;-88
2022/02/17 12:10:56;;;;;;;8.93;2.58;;;12.00;99.90;;;;;;5076827;28;20452;-83
2022/02/17 12:13:28;;;;;;;9.97;2.23;;;12.10;99.90;;;;;;5078109;28;20191;-82
2022/02/17 12:15:58;;;;;;;9.10;2.20;;;12.20;99.90;;;;;;5076442;28;20215;-85
2022/02/17 12:18:36;;;;;;;6.30;2.20;;;12.20;99.90;;;;;;5043510;28;20209;-82
2022/02/17 12:21:03;;;;;;;10.83;2.70;;;12.40;99.90;;;;;;5077946;28;20258;-82
2022/02/17 12:23:31;;;;;;;7.53;1.83;;;12.20;99.90;;;;;;5078425;28;20203;-83
2022/02/17 12:26:09;;;;;;;6.07;2.20;;;12.10;99.90;;;;;;5077717;28;20192;-83
2022/02/17 12:28:42;;;;;;;8.53;2.40;;;12.00;99.90;;;;;;5077068;28;20201;-84
2022/02/17 12:31:09;;;;;;;5.10;2.00;;;11.80;99.90;;;;;;5078122;28;20222;-84
2022/02/17 12:33:38;;;;;;;14.47;2.83;;;11.80;99.90;;;;;;5077485;28;20270;-80
2022/02/17 12:36:12;;;;;;;11.17;2.57;;;11.70;99.90;;;;;;5077081;28;20241;-79
2022/02/17 12:38:39;;;;;;;10.23;2.20;;;11.60;99.90;;;;;;5075264;28;20274;-78
2022/02/17 12:41:08;;;;;;;11.83;2.77;;;11.60;99.90;;;;;;5076862;28;20203;-77
2022/02/17 12:43:37;;;;;;;9.13;2.40;;;11.50;99.90;;;;;;5077313;28;20285;-77
2022/02/17 12:46:05;;;;;;;8.77;2.20;;;11.50;99.90;;;;;;5076306;28;20213;-79
2022/02/17 12:48:42;;;;;;;11.70;3.00;;;11.60;99.90;;;;;;5076924;28;20202;-79
2022/02/17 12:51:09;;;;;;;7.97;2.33;;;11.70;99.90;;;;;;5076334;28;20214;-79